Time;durP1;ratioP1;P1;durP2;ratioP2;P2;SDS_P1;SDS_P2;PMS_P1;PMS_P2;Temp;Humidity;BMP_temperature;BMP_pressure;BME280_temperature;BME280_humidity;BME280_pressure;Samples;Min_cycle;Max_cycle;Signal;HPM_P1;HPM_P2
2021/07/21 00:07:05;;;;;;;13.55;8.80;;;;;;;16.04;95.33;99243.75;4004913;85;21102;-83
2021/07/21 00:34:19;;;;;;;13.20;8.85;;;;;;;15.79;95.81;99248.05;3978522;87;21634;-84
2021/07/21 00:40:21;;;;;;;19.80;8.75;;;;;;;15.75;96.00;99248.69;3975894;86;21117;-83
2021/07/21 00:46:23;;;;;;;19.52;8.88;;;;;;;15.79;96.06;99243.91;4059864;83;21067;-84
2021/07/21 00:52:25;;;;;;;16.20;9.10;;;;;;;15.71;96.23;99241.00;4059195;85;21526;-83
2021/07/21 00:58:42;;;;;;;18.48;8.55;;;;;;;15.69;96.42;99249.69;4058962;84;21049;-83
2021/07/21 01:32:42;;;;;;;16.93;7.25;;;;;;;15.79;96.89;99249.44;3867168;88;21141;-84
2021/07/21 01:46:00;;;;;;;20.52;8.00;;;;;;;15.64;96.63;99250.71;3995993;86;21221;-83
2021/07/21 02:06:28;;;;;;;16.90;7.62;;;;;;;15.63;97.04;99243.60;3864988;89;21451;-84
2021/07/21 02:19:35;;;;;;;14.68;7.42;;;;;;;15.68;96.91;99257.60;3937366;88;21636;-83
2021/07/21 02:33:04;;;;;;;20.12;7.12;;;;;;;15.68;97.14;99268.02;3947135;87;21140;-84
2021/07/21 02:46:12;;;;;;;11.38;7.20;;;;;;;15.75;97.00;99260.31;3986788;87;21162;-83
2021/07/21 02:59:39;;;;;;;13.65;7.15;;;;;;;15.46;97.01;99244.48;3937587;87;21698;-83
2021/07/21 03:05:57;;;;;;;20.75;7.87;;;;;;;15.58;97.01;99269.64;3938515;85;21162;-84
2021/07/21 03:12:50;;;;;;;12.23;6.53;;;;;;;15.68;97.58;99276.92;3971734;86;21889;-83
2021/07/21 03:26:13;;;;;;;16.15;8.93;;;;;;;15.49;97.10;99288.61;4008035;85;21224;-83
2021/07/21 03:32:42;;;;;;;19.07;7.62;;;;;;;15.39;97.07;99292.19;3963259;87;21472;-84
2021/07/21 03:39:15;;;;;;;11.93;7.00;;;;;;;15.44;97.61;99297.91;3957581;87;21136;-84
2021/07/21 03:45:52;;;;;;;12.90;6.72;;;;;;;15.51;97.37;99297.87;3965923;86;21262;-81
2021/07/21 04:05:29;;;;;;;;;;;;;;;15.54;97.38;99306.72;4042517;84;21137;-84
2021/07/21 04:11:35;;;;;;;14.15;6.60;;;;;;;15.50;96.74;99322.52;4071978;84;20111;-83
2021/07/21 04:18:06;;;;;;;13.10;6.20;;;;;;;15.42;96.73;99328.66;4106858;84;21643;-84
2021/07/21 04:24:23;;;;;;;9.68;6.65;;;;;;;15.44;96.83;99335.16;4102876;84;21178;-83
2021/07/21 04:50:33;;;;;;;13.62;6.67;;;;;;;15.44;96.73;99340.05;4055703;84;21219;-83
2021/07/21 04:56:36;;;;;;;10.32;7.00;;;;;;;15.49;96.57;99354.03;4056857;85;21669;-84
2021/07/21 05:10:22;;;;;;;13.08;7.00;;;;;;;15.38;96.35;99361.55;4074396;84;21589;-83
2021/07/21 05:29:53;;;;;;;10.82;5.55;;;;;;;15.39;96.15;99372.18;4050480;83;21170;-83
2021/07/21 05:43:04;;;;;;;14.15;6.60;;;;;;;15.53;96.03;99383.80;4042449;83;21066;-83
2021/07/21 05:49:32;;;;;;;14.85;5.47;;;;;;;15.55;96.06;99389.09;4089756;84;21102;-82
2021/07/21 05:56:23;;;;;;;15.13;6.10;;;;;;;15.53;95.95;99392.07;4052540;83;21123;-84
2021/07/21 06:02:34;;;;;;;12.13;6.47;;;;;;;15.55;95.87;99400.14;4015786;84;21701;-85
2021/07/21 06:08:45;;;;;;;11.95;7.10;;;;;;;15.71;95.96;99400.31;4014670;83;21130;-84
2021/07/21 06:21:31;;;;;;;13.08;6.47;;;;;;;15.88;95.87;99409.13;4006993;85;21143;-84
2021/07/21 06:27:42;;;;;;;14.00;7.28;;;;;;;15.90;95.30;99418.56;4030199;84;21077;-84
2021/07/21 06:33:44;;;;;;;20.82;7.55;;;;;;;15.96;94.84;99418.34;4062205;84;21103;-83
2021/07/21 06:39:47;;;;;;;16.32;7.22;;;;;;;15.97;94.85;99422.70;4077411;84;21114;-83
2021/07/21 06:45:58;;;;;;;11.28;6.45;;;;;;;16.07;94.88;99430.13;4075756;83;21065;-85
2021/07/21 06:52:01;;;;;;;13.48;6.60;;;;;;;16.11;94.64;99428.74;4073846;84;21068;-82
2021/07/21 06:58:12;;;;;;;17.98;6.75;;;;;;;16.28;94.53;99430.05;4079511;83;21571;-84
2021/07/21 07:04:30;;;;;;;12.13;6.78;;;;;;;16.44;94.26;99428.19;4085912;84;21092;-84
2021/07/21 07:11:16;;;;;;;10.32;6.08;;;;;;;16.50;93.60;99428.78;3892272;88;21091;-84
2021/07/21 07:24:03;;;;;;;11.50;6.25;;;;;;;17.02;93.12;99437.91;4082951;84;21136;-84
2021/07/21 07:30:05;;;;;;;16.50;6.58;;;;;;;17.29;92.41;99445.00;4078305;83;21615;-83
2021/07/21 07:36:07;;;;;;;24.30;7.80;;;;;;;17.63;92.18;99446.68;4078894;84;21768;-84
2021/07/21 07:42:12;;;;;;;16.95;6.20;;;;;;;18.22;92.23;99447.98;4062114;83;21067;-84
2021/07/21 07:48:19;;;;;;;11.10;6.05;;;;;;;18.94;91.31;99443.03;4082375;84;21571;-84
2021/07/21 07:54:29;;;;;;;8.98;6.03;;;;;;;19.46;89.70;99437.25;4053067;83;21087;-86
2021/07/21 08:00:41;;;;;;;12.28;5.20;;;;;;;20.04;89.17;99442.91;4047932;83;21346;-85
2021/07/21 08:06:42;;;;;;;9.78;4.72;;;;;;;20.37;87.73;99445.83;4059739;85;21102;-84
2021/07/21 08:12:44;;;;;;;7.95;5.10;;;;;;;20.34;86.43;99446.69;4073818;84;21051;-84
2021/07/21 08:18:45;;;;;;;9.43;5.05;;;;;;;20.22;86.01;99448.11;4080957;84;21200;-83
2021/07/21 08:31:41;;;;;;;7.87;4.87;;;;;;;20.71;85.14;99448.44;4041482;85;21676;-85
2021/07/21 08:37:46;;;;;;;9.13;4.78;;;;;;;20.93;84.09;99448.12;4049567;83;21133;-84
2021/07/21 08:43:48;;;;;;;13.53;6.33;;;;;;;21.12;83.37;99454.27;4058353;84;21084;-86
2021/07/21 08:49:50;;;;;;;10.05;5.60;;;;;;;21.20;82.83;99457.66;4052205;85;21445;-83
2021/07/21 08:55:53;;;;;;;9.65;5.65;;;;;;;21.23;81.67;99449.23;4053579;85;21117;-83
2021/07/21 09:01:56;;;;;;;9.25;5.75;;;;;;;21.22;81.58;99447.64;4080678;83;21921;-84
2021/07/21 09:07:57;;;;;;;11.63;5.97;;;;;;;21.21;80.94;99452.25;4096115;85;21112;-81
2021/07/21 09:14:07;;;;;;;11.57;6.00;;;;;;;21.39;80.89;99452.61;4089120;84;21142;-82
2021/07/21 09:20:20;;;;;;;9.45;6.10;;;;;;;21.57;80.00;99439.80;4062395;83;21062;-84
2021/07/21 09:26:46;;;;;;;9.20;5.33;;;;;;;21.68;79.36;99437.52;4071614;84;21056;-83
2021/07/21 09:39:55;;;;;;;8.33;5.20;;;;;;;22.34;79.24;99445.24;4085989;85;21520;-84
2021/07/21 09:46:19;;;;;;;9.78;5.37;;;;;;;22.76;77.35;99439.02;4077920;83;21090;-82
2021/07/21 09:52:51;;;;;;;9.88;4.80;;;;;;;23.06;76.65;99443.44;4086360;84;21079;-83
2021/07/21 09:59:19;;;;;;;8.80;5.12;;;;;;;23.40;75.29;99432.20;4075815;84;21127;-84
2021/07/21 10:05:23;;;;;;;9.98;4.58;;;;;;;23.92;74.59;99427.53;4082300;83;22101;-82
2021/07/21 10:11:36;;;;;;;10.30;4.55;;;;;;;24.35;72.80;99434.54;4041723;83;22237;-83
2021/07/21 10:17:39;;;;;;;8.78;4.53;;;;;;;24.19;72.91;99430.57;4039941;84;21384;-84
2021/07/21 10:23:41;;;;;;;8.30;4.97;;;;;;;24.59;71.39;99416.03;4082036;84;21031;-83
2021/07/21 10:29:43;;;;;;;7.78;4.80;;;;;;;24.63;70.34;99406.86;4084373;84;21638;-84
2021/07/21 10:35:44;;;;;;;8.20;3.87;;;;;;;24.17;69.66;99425.25;4064178;84;21583;-82
2021/07/21 10:41:49;;;;;;;7.37;4.33;;;;;;;23.37;69.37;99438.66;4068234;84;21113;-84
2021/07/21 10:48:03;;;;;;;7.30;4.12;;;;;;;22.95;69.50;99435.22;4068587;84;21082;-83
2021/07/21 10:54:12;;;;;;;7.12;3.85;;;;;;;22.66;69.21;99428.34;4071774;84;21076;-83
2021/07/21 11:00:23;;;;;;;8.60;4.10;;;;;;;22.37;68.59;99429.02;4072990;83;21160;-83
2021/07/21 11:06:45;;;;;;;7.40;4.30;;;;;;;21.68;68.41;99433.33;4069374;84;21087;-81
2021/07/21 11:12:49;;;;;;;9.00;4.42;;;;;;;21.68;68.41;99433.33;4068087;83;21075;-83
2021/07/21 11:18:51;;;;;;;11.45;4.25;;;;;;;21.51;68.50;99440.16;4070346;84;21076;-83
2021/07/21 11:25:19;;;;;;;7.60;3.83;;;;;;;21.49;68.49;99430.05;4063519;83;21121;-82
2021/07/21 11:31:56;;;;;;;6.28;4.17;;;;;;;21.59;68.52;99433.78;4069446;84;21469;-83
2021/07/21 11:38:01;;;;;;;8.78;4.15;;;;;;;21.82;68.10;99421.64;4075025;83;21065;-84
2021/07/21 11:44:03;;;;;;;8.48;4.47;;;;;;;22.23;68.34;99417.48;4081455;84;21047;-82
2021/07/21 11:50:32;;;;;;;7.78;3.60;;;;;;;22.56;68.06;99431.47;4074114;83;21099;-83
2021/07/21 11:56:34;;;;;;;6.90;3.87;;;;;;;23.31;67.36;99430.08;3924137;86;21117;-82
2021/07/21 12:02:35;;;;;;;7.90;3.90;;;;;;;24.22;66.04;99417.06;4002832;86;21102;-84
2021/07/21 12:08:44;;;;;;;6.83;3.40;;;;;;;24.11;65.69;99422.28;4002355;86;21105;-82
2021/07/21 12:21:25;;;;;;;10.03;3.50;;;;;;;23.70;64.84;99429.52;4030044;85;21110;-84
2021/07/21 12:27:40;;;;;;;8.05;3.58;;;;;;;23.32;64.17;99433.66;4019598;85;21114;-84
2021/07/21 12:33:43;;;;;;;7.72;4.35;;;;;;;22.91;63.93;99440.16;4047917;83;21081;-83
2021/07/21 12:39:49;;;;;;;7.15;4.35;;;;;;;22.52;63.81;99443.36;4045566;85;21104;-83
2021/07/21 12:46:07;;;;;;;9.03;4.70;;;;;;;22.18;64.00;99443.13;4038415;84;21200;-85
2021/07/21 12:52:27;;;;;;;8.13;4.17;;;;;;;21.98;64.66;99441.11;4051750;84;21107;-84
2021/07/21 12:58:33;;;;;;;12.05;4.42;;;;;;;21.88;64.93;99438.78;4055693;85;21105;-84
2021/07/21 13:04:35;;;;;;;9.83;3.90;;;;;;;21.85;65.37;99434.72;4032852;85;21064;-85
2021/07/21 13:10:43;;;;;;;6.03;3.50;;;;;;;21.97;65.79;99422.83;4046369;83;21068;-85
2021/07/21 13:16:44;;;;;;;5.58;4.00;;;;;;;22.06;65.46;99416.00;4036288;84;21114;-84
2021/07/21 13:22:46;;;;;;;9.28;3.87;;;;;;;22.31;66.46;99416.05;4064351;85;21610;-84
2021/07/21 13:28:51;;;;;;;6.03;4.10;;;;;;;22.54;66.55;99414.38;4065929;85;21477;-85
2021/07/21 13:35:06;;;;;;;6.12;4.08;;;;;;;22.60;65.50;99412.00;4042878;84;21733;-84
2021/07/21 13:41:10;;;;;;;6.92;3.72;;;;;;;22.74;64.82;99411.55;4047373;84;21667;-84
2021/07/21 13:47:14;;;;;;;7.62;4.40;;;;;;;22.80;64.30;99411.16;4050669;84;21547;-84
2021/07/21 13:53:27;;;;;;;5.17;3.95;;;;;;;22.79;64.31;99409.61;4043107;83;21601;-85
2021/07/21 13:59:29;;;;;;;8.83;4.60;;;;;;;22.49;64.11;99411.51;4040886;83;21665;-83
2021/07/21 14:05:33;;;;;;;9.78;3.83;;;;;;;22.07;63.74;99407.19;4043351;84;21099;-85
2021/07/21 14:11:34;;;;;;;8.90;4.17;;;;;;;21.86;63.54;99410.59;4056505;84;21096;-82
2021/07/21 14:17:37;;;;;;;7.03;3.85;;;;;;;21.70;63.47;99406.42;4055079;84;21646;-84
2021/07/21 14:23:39;;;;;;;8.25;4.00;;;;;;;21.69;63.60;99407.02;4064512;85;21727;-84
2021/07/21 14:29:40;;;;;;;9.45;4.50;;;;;;;21.72;63.89;99405.38;4054304;85;21032;-84
2021/07/21 14:35:43;;;;;;;5.17;3.60;;;;;;;21.76;64.01;99403.30;4050569;84;21095;-84
2021/07/21 14:41:46;;;;;;;6.65;3.33;;;;;;;21.75;63.12;99400.34;4052666;84;21926;-83
2021/07/21 14:47:47;;;;;;;5.92;3.80;;;;;;;21.90;62.98;99398.72;4044711;84;21080;-82
2021/07/21 14:53:49;;;;;;;4.97;3.30;;;;;;;22.06;62.60;99402.05;4041331;85;21050;-84
2021/07/21 14:59:50;;;;;;;7.70;3.67;;;;;;;21.94;61.84;99400.78;4034195;85;21653;-84
2021/07/21 15:05:54;;;;;;;10.00;4.03;;;;;;;21.86;62.01;99396.66;4052283;84;21394;-83
2021/07/21 15:11:55;;;;;;;6.03;3.55;;;;;;;22.07;61.49;99392.45;4095264;84;21039;-84
2021/07/21 15:17:58;;;;;;;6.17;3.55;;;;;;;22.31;60.79;99395.93;4068567;84;21105;-84
2021/07/21 15:24:00;;;;;;;9.03;3.77;;;;;;;22.42;61.08;99401.97;4071278;83;21096;-84
2021/07/21 15:30:03;;;;;;;5.72;3.35;;;;;;;22.31;60.49;99405.70;4050898;85;21069;-84
2021/07/21 15:36:09;;;;;;;7.55;3.87;;;;;;;22.02;60.48;99401.39;4055711;83;21723;-84
2021/07/21 15:42:10;;;;;;;7.17;3.70;;;;;;;21.74;60.61;99400.92;4086536;83;21081;-85
2021/07/21 15:48:11;;;;;;;5.78;3.20;;;;;;;21.58;60.56;99397.41;4073200;83;21105;-84
2021/07/21 15:54:15;;;;;;;6.35;3.20;;;;;;;21.50;60.61;99402.99;4088964;83;21062;-84
2021/07/21 16:00:21;;;;;;;5.62;3.55;;;;;;;21.45;60.66;99402.12;4087809;84;21101;-85
2021/07/21 16:06:22;;;;;;;4.72;3.52;;;;;;;21.41;61.54;99399.42;4083045;83;21122;-84
2021/07/21 16:12:23;;;;;;;6.45;4.20;;;;;;;21.32;62.20;99397.88;4086681;84;21075;-83
2021/07/21 16:18:33;;;;;;;9.50;4.50;;;;;;;21.27;62.61;99403.17;4089372;83;21484;-85
2021/07/21 16:24:34;;;;;;;9.13;4.22;;;;;;;21.25;61.97;99404.24;4079434;83;21090;-84
2021/07/21 16:30:36;;;;;;;10.03;4.40;;;;;;;21.20;61.73;99407.55;4072653;84;21977;-83
2021/07/21 16:36:38;;;;;;;5.67;3.95;;;;;;;21.19;62.28;99407.39;4068653;83;21563;-83
2021/07/21 16:42:40;;;;;;;8.38;3.90;;;;;;;21.17;62.34;99407.03;4082245;83;21219;-86
2021/07/21 16:48:45;;;;;;;7.45;4.17;;;;;;;21.19;62.43;99409.54;4076567;83;21096;-85
2021/07/21 16:54:48;;;;;;;6.45;3.77;;;;;;;21.19;62.50;99408.78;4084498;84;21079;-82
2021/07/21 17:00:51;;;;;;;6.62;3.70;;;;;;;21.15;62.41;99416.42;3935389;87;21079;-84
2021/07/21 17:06:56;;;;;;;6.72;3.65;;;;;;;21.12;61.91;99415.90;3918213;86;21110;-85
2021/07/21 17:12:57;;;;;;;6.10;3.42;;;;;;;21.04;63.12;99415.89;4040080;85;21416;-84
2021/07/21 17:19:00;;;;;;;6.97;4.15;;;;;;;20.97;62.94;99421.02;4052800;83;21019;-85
2021/07/21 17:25:04;;;;;;;6.03;3.80;;;;;;;20.91;63.07;99421.94;4073622;84;21050;-84
2021/07/21 17:31:08;;;;;;;6.78;3.72;;;;;;;20.85;62.48;99428.64;4047868;84;21529;-84
2021/07/21 17:37:10;;;;;;;6.22;3.62;;;;;;;20.81;62.73;99433.52;4076841;84;21081;-85
2021/07/21 17:43:14;;;;;;;10.55;3.75;;;;;;;20.73;63.07;99443.23;4044276;83;21572;-84
2021/07/21 17:49:15;;;;;;;7.42;4.05;;;;;;;20.60;64.41;99445.71;4036930;84;21029;-85
2021/07/21 17:55:22;;;;;;;8.25;3.65;;;;;;;20.48;64.29;99449.16;4044848;84;21095;-84
2021/07/21 18:01:24;;;;;;;8.13;4.60;;;;;;;20.32;64.31;99452.67;4047129;84;21089;-84
2021/07/21 18:07:25;;;;;;;9.10;4.03;;;;;;;20.15;64.79;99452.44;4037148;84;21059;-85
2021/07/21 18:13:27;;;;;;;11.85;4.20;;;;;;;19.99;65.09;99460.06;4036747;83;21114;-84
2021/07/21 18:19:30;;;;;;;6.05;4.08;;;;;;;19.91;65.40;99464.78;4036313;85;21167;-85
2021/07/21 18:25:37;;;;;;;6.58;4.17;;;;;;;19.83;65.50;99461.95;4034067;85;21063;-85
2021/07/21 18:31:38;;;;;;;;;;;;;;;19.70;65.69;99465.19;4035250;83;21582;-85
2021/07/21 18:37:39;;;;;;;9.20;4.05;;;;;;;19.51;66.13;99481.20;4045717;85;20232;-84
2021/07/21 18:50:35;;;;;;;10.50;4.70;;;;;;;19.08;66.76;99490.78;4029126;84;21149;-84
2021/07/21 18:56:38;;;;;;;8.60;4.55;;;;;;;18.93;67.41;99494.98;4033719;83;21550;-84
2021/07/21 19:02:43;;;;;;;8.00;5.05;;;;;;;18.76;67.92;99503.55;4038694;85;21584;-84
2021/07/21 19:08:45;;;;;;;7.87;6.00;;;;;;;18.50;68.58;99511.41;4045878;85;22271;-84
2021/07/21 19:14:46;;;;;;;16.93;8.88;;;;;;;18.24;69.15;99511.30;4047662;84;21103;-85
2021/07/21 19:21:40;;;;;;;15.95;8.20;;;;;;;18.09;69.78;99517.59;4052474;83;21032;-84
2021/07/21 19:27:41;;;;;;;13.00;6.87;;;;;;;18.00;70.31;99523.43;3979132;86;21137;-84
2021/07/21 19:33:43;;;;;;;14.20;6.50;;;;;;;17.96;70.96;99522.69;3986724;86;21061;-84
2021/07/21 19:40:04;;;;;;;14.45;5.95;;;;;;;17.83;71.56;99529.34;3960653;87;21074;-83
2021/07/21 19:46:15;;;;;;;7.17;4.72;;;;;;;17.78;72.52;99533.94;4055940;84;21250;-84
2021/07/21 19:52:24;;;;;;;9.98;5.72;;;;;;;17.71;73.43;99538.76;4042533;83;21013;-84
2021/07/21 19:58:37;;;;;;;13.32;5.45;;;;;;;17.66;74.11;99544.14;4048918;85;21532;-84
2021/07/21 20:04:40;;;;;;;10.95;5.85;;;;;;;17.67;74.52;99551.23;4039942;85;21052;-85
2021/07/21 20:11:25;;;;;;;;;;;;;;;;;;;;;
2021/07/21 20:17:13;;;;;;;17.75;5.65;;;;;;;17.68;75.48;99552.80;4021251;84;22348;-84
2021/07/21 20:23:24;;;;;;;15.03;7.12;;;;;;;17.68;76.06;99547.88;4037423;84;21076;-84
2021/07/21 20:29:26;;;;;;;16.97;7.37;;;;;;;17.72;76.39;99548.03;4047735;85;21482;-84
2021/07/21 20:35:29;;;;;;;12.88;6.72;;;;;;;17.76;76.56;99548.78;4061413;85;21103;-84
2021/07/21 20:41:35;;;;;;;19.92;7.35;;;;;;;17.81;76.94;99549.73;4047359;84;21127;-85
2021/07/21 20:47:41;;;;;;;13.40;6.75;;;;;;;17.82;76.78;99555.45;4040346;84;21080;-84
2021/07/21 20:53:42;;;;;;;15.00;7.93;;;;;;;17.83;76.78;99550.11;4063332;85;21153;-85
2021/07/21 20:59:52;;;;;;;12.73;7.12;;;;;;;17.80;77.01;99548.17;4065200;84;21083;-84
2021/07/21 21:06:06;;;;;;;15.03;7.92;;;;;;;17.75;77.10;99560.27;4084022;85;21157;-84
2021/07/21 21:12:08;;;;;;;15.48;7.25;;;;;;;17.74;77.87;99563.66;4086100;83;21019;-84
2021/07/21 21:18:10;;;;;;;11.15;7.08;;;;;;;17.76;78.38;99564.02;4081641;83;21576;-84
2021/07/21 21:24:13;;;;;;;14.25;7.10;;;;;;;17.74;78.59;99567.01;4036935;84;21107;-84
2021/07/21 21:30:23;;;;;;;16.97;7.75;;;;;;;17.58;78.77;99570.31;4076109;84;21127;-84
2021/07/21 21:36:36;;;;;;;15.90;8.28;;;;;;;17.50;78.94;99573.52;4078519;84;21087;-84
2021/07/21 21:49:49;;;;;;;25.15;10.75;;;;;;;17.52;79.04;99574.70;4101163;84;21172;-84
2021/07/21 21:56:02;;;;;;;13.65;8.98;;;;;;;17.41;79.31;99579.50;4090241;84;21557;-84
2021/07/21 22:02:07;;;;;;;14.05;8.40;;;;;;;17.39;79.46;99579.70;4069676;83;21113;-84
2021/07/21 22:08:09;;;;;;;15.55;9.25;;;;;;;17.32;79.87;99580.53;4093805;84;22382;-84
2021/07/21 22:14:38;;;;;;;14.87;8.98;;;;;;;17.26;80.46;99582.16;4070282;84;21099;-84
2021/07/21 22:20:39;;;;;;;15.10;8.27;;;;;;;17.29;80.00;99578.58;4083802;84;21066;-85
2021/07/21 22:26:41;;;;;;;13.58;8.50;;;;;;;17.42;80.43;99578.89;4090350;83;21086;-85
2021/07/21 22:32:45;;;;;;;11.68;7.08;;;;;;;17.48;80.38;99583.62;4069169;84;21118;-85
2021/07/21 22:38:49;;;;;;;13.53;8.30;;;;;;;17.52;80.59;99588.55;4086916;84;21077;-84
2021/07/21 22:44:56;;;;;;;12.90;8.20;;;;;;;17.50;81.18;99591.52;4062076;84;21134;-84
2021/07/21 22:51:05;;;;;;;22.93;8.03;;;;;;;17.52;81.48;99591.31;4081047;84;21110;-84
2021/07/21 22:57:24;;;;;;;13.65;7.72;;;;;;;17.39;81.56;99592.95;4072349;84;21130;-84
2021/07/21 23:04:13;;;;;;;12.37;7.67;;;;;;;17.41;81.83;99593.34;4044825;86;21127;-84
2021/07/21 23:11:24;;;;;;;13.75;9.00;;;;;;;17.48;82.02;99586.39;4050198;83;21085;-84
2021/07/21 23:17:32;;;;;;;14.90;7.58;;;;;;;17.51;82.07;99584.80;4099580;84;21162;-84
2021/07/21 23:23:37;;;;;;;20.05;7.92;;;;;;;17.49;82.41;99588.56;4050682;83;21103;-84
2021/07/21 23:29:39;;;;;;;14.00;7.80;;;;;;;17.46;82.60;99578.31;4051031;84;21328;-84
2021/07/21 23:35:42;;;;;;;19.17;8.30;;;;;;;17.50;82.31;99580.44;4056440;85;21072;-83
2021/07/21 23:41:48;;;;;;;17.67;8.65;;;;;;;17.51;82.52;99580.66;4069881;84;21116;-83
2021/07/21 23:47:51;;;;;;;15.75;7.47;;;;;;;17.50;82.86;99578.47;4078843;84;21123;-84
2021/07/21 23:54:00;;;;;;;16.07;7.62;;;;;;;17.42;82.43;99576.12;4076259;83;21114;-84
